createdAt,value
2022-09-20T00:01:21.807Z,0.50
2022-09-20T00:03:51.412Z,1.27
2022-09-20T00:06:21.557Z,0.83
2022-09-20T00:08:49.395Z,0.60
2022-09-20T00:11:19.064Z,0.70
2022-09-20T00:13:47.917Z,1.03
2022-09-20T00:16:18.123Z,0.75
2022-09-20T00:18:49.454Z,1.10
2022-09-20T00:21:18.878Z,0.67
2022-09-20T00:26:14.092Z,0.90
2022-09-20T00:28:41.735Z,1.07
2022-09-20T00:31:08.703Z,0.70
2022-09-20T00:33:54.189Z,0.60
2022-09-20T00:36:20.991Z,0.80
2022-09-20T00:38:47.837Z,0.70
2022-09-20T00:41:14.835Z,0.90
2022-09-20T00:43:45.345Z,0.70
2022-09-20T00:46:17.957Z,0.50
2022-09-20T00:48:45.086Z,1.53
2022-09-20T00:51:16.762Z,0.40
2022-09-20T00:53:48.774Z,0.70
2022-09-20T00:56:29.823Z,1.03
2022-09-20T00:59:16.609Z,0.70
2022-09-20T01:01:46.571Z,0.30
2022-09-20T01:04:16.358Z,0.60
2022-09-20T01:06:46.350Z,0.80
2022-09-20T01:09:13.255Z,0.80
2022-09-20T01:11:41.209Z,1.30
2022-09-20T01:14:08.847Z,1.63
2022-09-20T01:16:36.967Z,1.37
2022-09-20T01:19:15.109Z,1.03
2022-09-20T01:21:42.109Z,0.97
2022-09-20T01:24:19.002Z,1.73
2022-09-20T01:27:10.006Z,0.90
2022-09-20T01:30:21.549Z,1.40
2022-09-20T01:33:03.122Z,1.30
2022-09-20T01:35:34.434Z,1.37
2022-09-20T01:38:04.134Z,0.67
2022-09-20T01:40:45.734Z,1.20
2022-09-20T01:43:24.846Z,1.63
2022-09-20T01:45:53.199Z,1.25
2022-09-20T01:48:36.232Z,0.87
2022-09-20T01:51:05.935Z,1.90
2022-09-20T01:53:56.955Z,1.40
2022-09-20T01:56:45.298Z,1.20
2022-09-20T01:59:24.322Z,1.13
2022-09-20T02:01:54.337Z,2.27
2022-09-20T02:04:33.192Z,1.30
2022-09-20T02:07:20.283Z,2.50
2022-09-20T02:09:58.572Z,0.80
2022-09-20T02:12:54.458Z,1.10
2022-09-20T02:15:48.215Z,1.53
2022-09-20T02:18:24.106Z,2.40
2022-09-20T02:21:34.574Z,1.57
2022-09-20T02:24:26.350Z,1.53
2022-09-20T02:27:11.474Z,1.27
2022-09-20T02:30:12.915Z,1.17
2022-09-20T02:32:58.229Z,3.00
2022-09-20T02:35:42.057Z,3.90
2022-09-20T02:38:36.621Z,2.00
2022-09-20T02:41:31.060Z,2.53
2022-09-20T02:44:22.453Z,2.17
2022-09-20T02:47:09.054Z,2.90
2022-09-20T02:49:58.981Z,2.60
2022-09-20T02:52:49.120Z,2.87
2022-09-20T02:55:41.845Z,2.00
2022-09-20T02:58:39.170Z,2.10
2022-09-20T03:01:11.673Z,2.47
2022-09-20T03:03:50.624Z,2.23
2022-09-20T03:06:30.349Z,2.55
2022-09-20T03:09:14.053Z,2.33
2022-09-20T03:12:00.906Z,3.90
2022-09-20T03:14:57.721Z,1.97
2022-09-20T03:17:42.548Z,2.87
2022-09-20T03:20:15.401Z,2.40
2022-09-20T03:23:06.893Z,2.10
2022-09-20T03:26:02.399Z,2.00
2022-09-20T03:28:54.147Z,4.47
2022-09-20T03:31:48.796Z,3.90
2022-09-20T03:34:58.362Z,2.40
2022-09-20T03:37:39.715Z,2.57
2022-09-20T03:40:15.970Z,1.60
2022-09-20T03:42:58.959Z,1.50
2022-09-20T03:45:56.603Z,4.00
2022-09-20T03:48:35.922Z,1.90
2022-09-20T03:53:53.666Z,2.37
2022-09-20T03:57:01.870Z,3.50
2022-09-20T03:59:43.994Z,2.47
2022-09-20T04:02:29.526Z,2.93
2022-09-20T04:05:01.260Z,1.93
2022-09-20T04:07:49.531Z,3.57
2022-09-20T04:10:38.216Z,4.53
2022-09-20T04:13:16.384Z,3.65
2022-09-20T04:16:01.793Z,3.33
2022-09-20T04:18:28.570Z,3.30
2022-09-20T04:21:23.953Z,4.43
2022-09-20T04:24:16.596Z,3.67
2022-09-20T04:26:51.894Z,6.13
2022-09-20T04:29:26.570Z,6.83
2022-09-20T04:32:04.080Z,5.70
2022-09-20T04:35:21.359Z,6.70
2022-09-20T04:37:49.736Z,7.50
2022-09-20T04:40:25.662Z,7.70
2022-09-20T04:43:40.769Z,9.30
2022-09-20T04:46:35.851Z,7.73
2022-09-20T04:49:21.417Z,8.10
2022-09-20T04:51:58.340Z,10.27
2022-09-20T04:54:49.286Z,9.37
2022-09-20T04:57:34.581Z,8.20
2022-09-20T05:00:12.953Z,6.57
2022-09-20T05:03:04.397Z,9.00
2022-09-20T05:05:46.258Z,6.30
2022-09-20T05:08:31.785Z,7.87
2022-09-20T05:11:12.921Z,6.47
2022-09-20T05:13:57.734Z,5.37
2022-09-20T05:16:50.511Z,3.27
2022-09-20T05:19:43.334Z,3.47
2022-09-20T05:22:44.336Z,4.27
2022-09-20T05:25:46.751Z,4.60
2022-09-20T05:28:16.590Z,8.57
2022-09-20T05:30:58.561Z,7.93
2022-09-20T05:33:40.462Z,5.10
2022-09-20T05:36:16.715Z,4.07
2022-09-20T05:39:02.824Z,4.80
2022-09-20T05:41:35.597Z,4.60
2022-09-20T05:44:18.615Z,2.50
2022-09-20T05:46:55.030Z,1.70
2022-09-20T05:49:55.824Z,2.00
2022-09-20T05:52:39.624Z,2.53
2022-09-20T05:55:20.863Z,0.90
2022-09-20T05:58:05.957Z,4.07
2022-09-20T06:00:44.652Z,2.30
2022-09-20T06:03:36.773Z,3.22
2022-09-20T06:06:30.346Z,2.97
2022-09-20T06:09:28.878Z,1.20
2022-09-20T06:12:14.092Z,4.03
2022-09-20T06:15:18.010Z,1.97
2022-09-20T06:18:14.092Z,1.80
2022-09-20T06:21:02.530Z,0.80
2022-09-20T06:23:31.416Z,1.20
2022-09-20T06:26:29.950Z,2.17
2022-09-20T06:29:03.361Z,4.95
2022-09-20T06:31:30.290Z,1.80
2022-09-20T06:34:10.717Z,2.20
2022-09-20T06:37:01.607Z,1.05
2022-09-20T06:39:56.322Z,1.60
2022-09-20T06:42:26.937Z,1.33
2022-09-20T06:44:54.461Z,0.98
2022-09-20T06:47:23.329Z,1.48
2022-09-20T06:49:50.559Z,0.98
2022-09-20T06:52:19.574Z,0.68
2022-09-20T06:54:48.350Z,1.20
2022-09-20T06:57:19.196Z,1.35
2022-09-20T06:59:46.006Z,2.15
2022-09-20T07:02:13.016Z,0.68
2022-09-20T07:04:40.206Z,1.45
2022-09-20T07:07:09.718Z,1.50
2022-09-20T07:09:36.894Z,1.77
2022-09-20T07:12:03.949Z,1.40
2022-09-20T07:14:31.260Z,2.10
2022-09-20T07:16:58.062Z,0.68
2022-09-20T07:19:24.821Z,1.20
2022-09-20T07:21:51.676Z,1.95
2022-09-20T07:24:18.524Z,1.67
2022-09-20T07:27:01.562Z,0.80
2022-09-20T07:29:29.321Z,3.40
2022-09-20T07:31:57.194Z,1.17
2022-09-20T07:34:24.556Z,0.90
2022-09-20T07:36:51.464Z,5.97
2022-09-20T07:39:18.930Z,0.80
2022-09-20T07:41:48.676Z,1.95
2022-09-20T07:44:24.428Z,0.73
2022-09-20T07:46:53.239Z,0.70
2022-09-20T07:49:21.411Z,4.53
2022-09-20T07:51:49.972Z,0.80
2022-09-20T07:54:17.722Z,1.48
2022-09-20T07:56:45.691Z,0.73
2022-09-20T07:59:13.853Z,1.20
2022-09-20T08:01:41.380Z,1.45
2022-09-20T08:04:09.428Z,1.65
2022-09-20T08:06:38.154Z,1.42
2022-09-20T08:09:10.222Z,0.32
2022-09-20T08:11:39.690Z,1.30
2022-09-20T08:14:09.131Z,3.03
2022-09-20T08:16:41.484Z,1.40
2022-09-20T08:19:09.271Z,1.25
2022-09-20T08:21:38.997Z,0.82
2022-09-20T08:24:06.089Z,1.25
2022-09-20T08:26:35.572Z,2.55
2022-09-20T08:29:03.189Z,0.80
2022-09-20T08:31:34.511Z,3.50
2022-09-20T08:34:04.025Z,0.52
2022-09-20T08:36:36.422Z,2.65
2022-09-20T08:42:03.827Z,0.73
2022-09-20T08:44:45.331Z,0.60
2022-09-20T08:47:12.466Z,0.25
2022-09-20T08:49:46.142Z,0.20
2022-09-20T08:52:24.517Z,0.65
2022-09-20T08:54:51.518Z,0.98
2022-09-20T08:57:20.847Z,4.70
2022-09-20T08:59:48.458Z,0.52
2022-09-20T09:02:21.303Z,2.65
2022-09-20T09:04:49.991Z,1.52
2022-09-20T09:07:22.099Z,2.85
2022-09-20T09:09:52.117Z,0.95
2022-09-20T09:12:31.070Z,1.40
2022-09-20T09:15:00.973Z,1.15
2022-09-20T09:17:30.377Z,1.10
2022-09-20T09:20:21.762Z,0.32
2022-09-20T09:23:00.116Z,1.35
2022-09-20T09:25:38.125Z,0.47
2022-09-20T09:28:15.572Z,3.08
2022-09-20T09:30:47.762Z,2.20
2022-09-20T09:33:20.389Z,0.30
2022-09-20T09:36:05.393Z,0.57
2022-09-20T09:38:35.541Z,0.40
2022-09-20T09:41:26.843Z,1.05
2022-09-20T09:44:11.130Z,0.30
2022-09-20T09:46:40.352Z,1.58
2022-09-20T09:52:01.752Z,2.08
2022-09-20T09:54:36.597Z,0.82
2022-09-20T09:57:40.465Z,1.20
2022-09-20T10:00:20.359Z,0.93
2022-09-20T10:03:07.679Z,1.90
2022-09-20T10:05:55.209Z,0.40
2022-09-20T10:08:54.349Z,1.80
2022-09-20T10:11:38.451Z,0.50
2022-09-20T10:14:22.966Z,0.20
2022-09-20T10:16:58.703Z,1.05
2022-09-20T10:19:34.593Z,0.45
2022-09-20T10:22:28.742Z,0.85
2022-09-20T10:25:10.425Z,0.10
2022-09-20T10:27:55.690Z,0.15
2022-09-20T10:30:42.266Z,1.00
2022-09-20T10:33:32.805Z,0.40
2022-09-20T10:36:21.369Z,0.50
2022-09-20T10:39:14.241Z,0.73
2022-09-20T10:42:02.847Z,0.60
2022-09-20T10:44:57.230Z,0.57
2022-09-20T10:47:37.548Z,0.40
2022-09-20T10:50:35.101Z,0.30
2022-09-20T10:53:11.965Z,0.47
2022-09-20T10:55:48.817Z,1.45
2022-09-20T10:58:38.610Z,1.25
2022-09-20T11:01:39.219Z,0.70
2022-09-20T11:04:54.266Z,0.47
2022-09-20T11:07:37.927Z,1.75
2022-09-20T11:10:36.835Z,0.98
2022-09-20T11:16:29.419Z,0.77
2022-09-20T11:19:05.718Z,0.30
2022-09-20T11:21:44.739Z,1.95
2022-09-20T11:24:31.168Z,1.58
2022-09-20T11:27:18.698Z,1.40
2022-09-20T11:30:29.860Z,1.40
2022-09-20T11:33:20.808Z,0.43
2022-09-20T11:35:58.843Z,0.38
2022-09-20T11:38:35.104Z,0.30
2022-09-20T11:41:27.674Z,0.77
2022-09-20T11:44:00.583Z,1.85
2022-09-20T11:46:37.293Z,0.70
2022-09-20T11:49:16.338Z,0.60
2022-09-20T11:54:58.251Z,0.70
2022-09-20T11:57:25.789Z,1.35
2022-09-20T11:59:59.305Z,0.60
2022-09-20T12:02:32.038Z,0.32
2022-09-20T12:05:02.110Z,0.40
2022-09-20T12:07:36.453Z,0.60
2022-09-20T12:10:10.890Z,0.57
2022-09-20T12:12:39.628Z,2.83
2022-09-20T12:15:29.867Z,0.25
2022-09-20T12:17:56.707Z,0.52
2022-09-20T12:20:32.937Z,1.27
2022-09-20T12:23:37.006Z,2.35
2022-09-20T12:26:21.903Z,0.60
2022-09-20T12:29:01.162Z,0.60
2022-09-20T12:31:34.433Z,0.88
2022-09-20T12:34:24.610Z,0.30
2022-09-20T12:36:54.041Z,0.30
2022-09-20T12:39:30.093Z,1.15
2022-09-20T12:42:03.243Z,0.63
2022-09-20T12:44:47.453Z,1.70
2022-09-20T12:47:14.545Z,0.75
2022-09-20T12:50:06.105Z,2.00
2022-09-20T12:52:50.750Z,1.08
2022-09-20T12:55:42.583Z,0.70
2022-09-20T12:58:12.162Z,1.15
2022-09-20T13:00:46.658Z,0.65
2022-09-20T13:03:35.034Z,0.30
2022-09-20T13:06:08.905Z,0.38
2022-09-20T13:08:43.467Z,0.45
2022-09-20T13:11:18.713Z,0.30
2022-09-20T13:14:04.381Z,0.98
2022-09-20T13:16:40.493Z,2.10
2022-09-20T13:19:16.857Z,0.40
2022-09-20T13:22:14.441Z,0.60
2022-09-20T13:24:48.500Z,0.60
2022-09-20T13:27:32.769Z,0.45
2022-09-20T13:30:31.934Z,0.40
2022-09-20T13:33:17.557Z,1.00
2022-09-20T13:35:48.468Z,1.08
2022-09-20T13:38:25.187Z,1.08
2022-09-20T13:40:54.380Z,1.00
2022-09-20T13:43:36.965Z,0.82
2022-09-20T13:46:16.690Z,0.25
2022-09-20T13:48:47.350Z,0.20
2022-09-20T13:51:40.734Z,0.50
2022-09-20T13:54:22.263Z,0.30
2022-09-20T13:56:50.994Z,1.10
2022-09-20T13:59:19.624Z,2.17
2022-09-20T14:01:53.100Z,3.05
2022-09-20T14:04:25.040Z,0.20
2022-09-20T14:06:56.503Z,0.77
2022-09-20T14:09:33.066Z,0.50
2022-09-20T14:12:01.445Z,0.60
2022-09-20T14:14:29.187Z,0.30
2022-09-20T14:16:58.278Z,1.15
2022-09-20T14:19:37.433Z,0.95
2022-09-20T14:22:05.453Z,0.93
2022-09-20T14:24:35.716Z,0.20
2022-09-20T14:27:22.433Z,2.05
2022-09-20T14:29:54.987Z,0.45
2022-09-20T14:32:42.760Z,1.02
2022-09-20T14:35:31.555Z,2.97
2022-09-20T14:38:06.154Z,0.10
2022-09-20T14:40:44.787Z,0.57
2022-09-20T14:43:29.391Z,0.75
2022-09-20T14:46:18.729Z,1.48
2022-09-20T14:48:46.528Z,1.40
2022-09-20T14:51:22.345Z,0.30
2022-09-20T14:54:07.319Z,0.25
2022-09-20T14:56:37.429Z,1.95
2022-09-20T14:59:14.642Z,0.63
2022-09-20T15:01:46.434Z,1.85
2022-09-20T15:04:25.549Z,0.63
2022-09-20T15:06:55.122Z,1.13
2022-09-20T15:09:23.006Z,0.60
2022-09-20T15:12:20.393Z,3.20
2022-09-20T15:14:48.345Z,0.63
2022-09-20T15:17:20.897Z,1.38
2022-09-20T15:19:49.439Z,0.98
2022-09-20T15:22:16.361Z,0.82
2022-09-20T15:24:43.678Z,2.80
2022-09-20T15:27:13.523Z,0.73
2022-09-20T15:29:40.407Z,0.32
2022-09-20T15:32:09.585Z,0.65
2022-09-20T15:37:03.439Z,1.58
2022-09-20T15:39:30.274Z,1.90
2022-09-20T15:41:57.430Z,0.60
2022-09-20T15:44:24.372Z,4.13
2022-09-20T15:46:51.617Z,4.13
2022-09-20T15:49:18.602Z,1.67
2022-09-20T15:51:46.465Z,2.13
2022-09-20T15:54:14.900Z,1.20
2022-09-20T15:56:42.281Z,1.73
2022-09-20T15:59:11.563Z,2.75
2022-09-20T16:04:19.676Z,1.77
2022-09-20T16:06:49.599Z,4.82
2022-09-20T16:09:18.450Z,2.75
2022-09-20T16:11:45.919Z,4.53
2022-09-20T16:14:13.069Z,5.18
2022-09-20T16:16:40.823Z,6.68
2022-09-20T16:19:22.011Z,8.90
2022-09-20T16:21:57.781Z,10.73
2022-09-20T16:24:30.969Z,9.85
2022-09-20T16:26:59.279Z,9.30
2022-09-20T16:29:27.120Z,11.97
2022-09-20T16:31:55.060Z,7.65
2022-09-20T16:34:31.132Z,5.60
2022-09-20T16:37:03.050Z,7.35
2022-09-20T16:39:31.422Z,11.23
2022-09-20T16:42:06.801Z,9.83
2022-09-20T16:44:36.001Z,9.77
2022-09-20T16:47:08.152Z,11.60
2022-09-20T16:49:36.356Z,13.45
2022-09-20T16:52:07.604Z,20.05
2022-09-20T16:54:34.710Z,11.63
2022-09-20T16:57:01.622Z,9.15
2022-09-20T16:59:28.720Z,10.38
2022-09-20T17:01:55.705Z,10.88
2022-09-20T17:04:22.905Z,6.95
2022-09-20T17:06:51.544Z,9.13
2022-09-20T17:09:18.617Z,9.43
2022-09-20T17:11:49.209Z,6.60
2022-09-20T17:14:17.921Z,5.05
2022-09-20T17:16:48.518Z,4.80
2022-09-20T17:19:18.740Z,3.92
2022-09-20T17:21:50.329Z,3.25
2022-09-20T17:24:19.767Z,3.65
2022-09-20T17:26:47.237Z,3.65
2022-09-20T17:29:17.589Z,3.28
2022-09-20T17:31:51.505Z,2.40
2022-09-20T17:34:22.155Z,2.38
2022-09-20T17:36:50.570Z,4.00
2022-09-20T17:39:17.971Z,6.33
2022-09-20T17:41:47.063Z,4.45
2022-09-20T17:44:26.668Z,3.08
2022-09-20T17:47:07.301Z,4.15
2022-09-20T17:49:54.684Z,3.10
2022-09-20T17:52:28.198Z,3.13
2022-09-20T17:54:55.089Z,4.43
2022-09-20T17:57:21.906Z,2.00
2022-09-20T17:59:48.739Z,2.10
2022-09-20T18:02:16.061Z,3.42
2022-09-20T18:04:42.891Z,3.58
2022-09-20T18:07:09.815Z,3.53
2022-09-20T18:09:36.726Z,1.80
2022-09-20T18:12:05.133Z,2.83
2022-09-20T18:14:32.735Z,2.27
2022-09-20T18:17:01.636Z,3.33
2022-09-20T18:19:35.222Z,5.05
2022-09-20T18:22:02.887Z,3.22
2022-09-20T18:24:30.504Z,3.97
2022-09-20T18:26:57.348Z,3.67
2022-09-20T18:29:25.123Z,2.28
2022-09-20T18:31:54.787Z,4.15
2022-09-20T18:34:24.352Z,4.03
2022-09-20T18:36:54.345Z,6.20
2022-09-20T18:39:27.645Z,2.85
2022-09-20T18:41:55.157Z,4.60
2022-09-20T18:44:23.117Z,4.10
2022-09-20T18:46:55.324Z,4.35
2022-09-20T18:49:22.618Z,3.28
2022-09-20T18:51:49.765Z,4.68
2022-09-20T18:54:17.823Z,3.70
2022-09-20T18:56:46.717Z,4.03
2022-09-20T18:59:18.207Z,3.45
2022-09-20T19:01:54.087Z,2.70
2022-09-20T19:04:39.868Z,5.40
2022-09-20T19:07:16.214Z,4.90
2022-09-20T19:09:50.634Z,3.25
2022-09-20T19:12:37.226Z,7.35
2022-09-20T19:15:13.099Z,4.43
2022-09-20T19:17:48.146Z,3.40
2022-09-20T19:20:20.743Z,3.92
2022-09-20T19:23:06.318Z,4.35
2022-09-20T19:25:43.541Z,4.32
2022-09-20T19:28:12.587Z,4.72
2022-09-20T19:30:40.730Z,3.85
2022-09-20T19:33:17.944Z,7.63
2022-09-20T19:35:50.137Z,3.60
2022-09-20T19:38:26.069Z,5.00
2022-09-20T19:41:20.701Z,4.90
2022-09-20T19:43:56.730Z,5.57
2022-09-20T19:46:46.396Z,8.52
2022-09-20T19:49:32.072Z,8.20
2022-09-20T19:51:59.208Z,3.72
2022-09-20T19:54:26.456Z,3.45
2022-09-20T19:56:54.995Z,4.43
2022-09-20T19:59:24.462Z,3.65
2022-09-20T20:01:52.707Z,5.20
2022-09-20T20:04:21.044Z,3.50
2022-09-20T20:06:47.990Z,3.03
2022-09-20T20:09:23.024Z,5.20
2022-09-20T20:12:01.746Z,6.13
2022-09-20T20:14:50.970Z,6.78
2022-09-20T20:17:46.446Z,14.52
2022-09-20T20:20:22.614Z,17.00
2022-09-20T20:23:11.604Z,15.33
2022-09-20T20:25:50.414Z,16.52
2022-09-20T20:28:17.333Z,14.82
2022-09-20T20:30:44.135Z,12.10
2022-09-20T20:33:17.340Z,11.33
2022-09-20T20:35:44.103Z,9.57
2022-09-20T20:38:11.925Z,9.80
2022-09-20T20:40:38.784Z,6.50
2022-09-20T20:43:06.283Z,10.07
2022-09-20T20:45:33.200Z,6.70
2022-09-20T20:48:00.118Z,6.70
2022-09-20T20:50:28.338Z,4.50
2022-09-20T20:52:56.589Z,5.17
2022-09-20T20:55:24.861Z,3.37
2022-09-20T20:58:01.276Z,5.10
2022-09-20T21:00:28.507Z,6.07
2022-09-20T21:03:03.098Z,2.47
2022-09-20T21:05:31.087Z,4.20
2022-09-20T21:07:58.945Z,4.83
2022-09-20T21:10:28.842Z,5.37
2022-09-20T21:12:55.786Z,7.77
2022-09-20T21:15:22.767Z,3.47
2022-09-20T21:17:53.359Z,6.13
2022-09-20T21:20:21.726Z,5.10
2022-09-20T21:22:48.602Z,5.43
2022-09-20T21:25:15.488Z,5.80
2022-09-20T21:27:42.862Z,6.17
2022-09-20T21:30:10.220Z,6.43
2022-09-20T21:32:37.064Z,7.00
2022-09-20T21:35:04.133Z,7.07
2022-09-20T21:37:31.009Z,6.70
2022-09-20T21:39:57.966Z,9.73
2022-09-20T21:42:27.395Z,10.27
2022-09-20T21:44:54.575Z,8.02
2022-09-20T21:47:21.554Z,7.27
2022-09-20T21:49:48.687Z,7.23
2022-09-20T21:52:15.866Z,5.17
2022-09-20T21:54:46.746Z,6.47
2022-09-20T21:57:13.993Z,4.97
2022-09-20T21:59:41.870Z,7.43
2022-09-20T22:02:09.345Z,5.10
2022-09-20T22:04:36.686Z,5.63
2022-09-20T22:07:04.642Z,6.23
2022-09-20T22:09:31.672Z,4.87
2022-09-20T22:11:58.731Z,7.60
2022-09-20T22:14:25.970Z,7.70
2022-09-20T22:16:53.233Z,3.10
2022-09-20T22:19:20.695Z,7.17
2022-09-20T22:21:50.058Z,6.30
2022-09-20T22:26:46.009Z,6.53
2022-09-20T22:29:13.010Z,5.68
2022-09-20T22:31:45.326Z,5.63
2022-09-20T22:34:22.024Z,3.33
2022-09-20T22:36:49.673Z,4.00
2022-09-20T22:39:17.438Z,4.43
2022-09-20T22:41:45.087Z,4.20
2022-09-20T22:44:12.593Z,5.43
2022-09-20T22:46:40.114Z,3.37
2022-09-20T22:49:08.693Z,3.03
2022-09-20T22:51:36.084Z,4.30
2022-09-20T22:54:08.371Z,4.23
2022-09-20T22:56:36.443Z,6.50
2022-09-20T22:59:11.075Z,5.90
2022-09-20T23:01:44.187Z,5.07
2022-09-20T23:04:13.783Z,6.67
2022-09-20T23:09:10.364Z,5.17
2022-09-20T23:11:39.021Z,5.70
2022-09-20T23:14:06.781Z,3.67
2022-09-20T23:16:36.642Z,4.33
2022-09-20T23:19:05.746Z,5.10
2022-09-20T23:21:33.655Z,2.63
2022-09-20T23:24:02.746Z,5.67
2022-09-20T23:26:32.846Z,6.68
2022-09-20T23:29:05.655Z,11.00
2022-09-20T23:31:34.997Z,6.10
2022-09-20T23:34:04.569Z,8.52
2022-09-20T23:36:33.347Z,3.93
2022-09-20T23:39:00.262Z,3.83
2022-09-20T23:41:28.469Z,4.80
2022-09-20T23:43:55.564Z,3.10
2022-09-20T23:46:24.426Z,4.07
2022-09-20T23:48:51.475Z,2.95
2022-09-20T23:51:22.611Z,2.87
2022-09-20T23:53:50.493Z,4.07
2022-09-20T23:56:18.065Z,3.07
2022-09-20T23:58:45.245Z,3.47
